Nearby METAR Reports

 

KARR - Chicago/Aurora, Illinois, USA
Distance from station: S 8mi, 13km
Updated: Fri, Sep-22-2017 4:52pm CDT
Clear
Clear
 Wind from S
Wind: S 6 mph , 9 km/h
Temperature: 91°F , 33°C
Heat Index: 93°F , 34°C
Dew Point: 64°F , 18°C
Humidity: 41%
Barometer: 1016.6 hPa
Clouds: Clear
Visibility: 10 miles , 16 km
2017/09/22 21:52 KARR 222152Z 18005KT 10SM CLR 33/18 A3002 RMK AO2 SLP160 T03330183
KDKB - De Kalb, Illinois, USA
Distance from station: WNW 12mi, 19km
Updated: Fri, Sep-22-2017 4:55pm CDT
Clear
Clear
 Wind from S
Wind: S 9 mph , 15 km/h
Temperature: 91°F , 33°C
Heat Index: 93°F , 34°C
Dew Point: 64°F , 18°C
Humidity: 41%
Barometer: 1017.3 hPa
Clouds: Clear
Visibility: 10 miles , 16 km
2017/09/22 21:55 KDKB 222155Z AUTO 17008KT 10SM CLR 33/18 A3004 RMK AO2 T03250181
 
KDPA - Chicago/Dupage, Illinois, USA
Distance from station: E 12mi, 19km
Updated: Fri, Sep-22-2017 4:52pm CDT
Clear
Clear
 Wind from S
Wind: S 6 mph , 9 km/h
Temperature: 91°F , 33°C
Dew Point: 63°F , 17°C
Humidity: 38%
Barometer: 1016.6 hPa
Clouds: Clear
Visibility: 9 miles , 14 km
2017/09/22 21:52 KDPA 222152Z 19005KT 9SM CLR 33/17 A3002 RMK AO2 SLP158 T03330172
KLOT - Romeoville/Chi, Illinois, USA
Distance from station: SE 28mi, 45km
Updated: Fri, Sep-22-2017 4:55pm CDT
Clear
Clear
 Wind from SSW
Wind: SSW 6 mph , 9 km/h
Temperature: 91°F , 33°C
Dew Point: 63°F , 17°C
Humidity: 38%
Barometer: 1016.6 hPa
Clouds: Clear
Visibility: 10 miles , 16 km
2017/09/22 21:55 KLOT 222155Z AUTO 20005KT 10SM CLR 33/17 A3002 RMK AO2 T03330174
 
KORD - Chicago O'hare, Illinois, USA
Distance from station: ENE 29mi, 46km
Updated: Fri, Sep-22-2017 4:51pm CDT
Partly cloudy
Partly cloudy
 Wind from SSW
Wind: SSW 9 mph , 15 km/h
Temperature: 93°F , 34°C
Dew Point: 63°F , 17°C
Humidity: 36%
Barometer: 1016.3 hPa
Clouds: Partly cloudy
Visibility: 10 miles , 16 km
Cloud details: Partly cloudy 7000 ft
2017/09/22 21:51 KORD 222151Z 20008KT 10SM SCT070 34/17 A3001 RMK AO2 SLP156 T03390172
KJOT - Joliet, Illinois, USA
Distance from station: SSE 30mi, 48km
Updated: Fri, Sep-22-2017 4:55pm CDT
Clear
Clear
 Wind from S
Wind: S 6 mph , 9 km/h
Temperature: 93°F , 34°C
Heat Index: 96°F , 36°C
Dew Point: 66°F , 19°C
Humidity: 41%
Barometer: 1016.6 hPa
Clouds: Clear
Visibility: 10 miles , 16 km
2017/09/22 21:55 KJOT 222155Z AUTO 19005KT 10SM CLR 34/19 A3002 RMK AO2 T03350190
 
KRPJ - Rochelle/Koritz, Illinois, USA
Distance from station: W 31mi, 50km
Updated: Fri, Sep-22-2017 4:55pm CDT
Clear
Clear
 Wind from SSW
Wind: SSW 7 mph , 11 km/h
Temperature: 91°F , 33°C
Heat Index: 93°F , 34°C
Dew Point: 64°F , 18°C
Humidity: 41%
Barometer: 1016.6 hPa
Clouds: Clear
Visibility: 10 miles , 16 km
2017/09/22 21:55 KRPJ 222155Z AUTO 20006KT 10SM CLR 33/18 A3002 RMK AO2 T03300181
KC09 - Morris-Washburn, Illinois, USA
Distance from station: S 31mi, 51km
Updated: Fri, Sep-22-2017 4:55pm CDT
Clear
Clear
 Wind from S
Wind: S 6 mph , 9 km/h
Temperature: 91°F , 33°C
Heat Index: 93°F , 34°C
Dew Point: 64°F , 18°C
Humidity: 41%
Barometer: 1015.9 hPa
Clouds: Clear
Visibility: 10 miles , 16 km
2017/09/22 21:55 KC09 222155Z AUTO 19005KT 10SM CLR 33/18 A3000 RMK AO2 T03330178
 
KPWK - Palwaukee, Illinois, USA
Distance from station: ENE 34mi, 54km
Updated: Fri, Sep-22-2017 4:52pm CDT
Clear
Clear
 Wind from SSW
Wind: SSW 6 mph , 9 km/h
Temperature: 93°F , 34°C
Dew Point: 63°F , 17°C
Humidity: 36%
Barometer: 1016.9 hPa
Clouds: Clear
Visibility: 10 miles , 16 km
2017/09/22 21:52 KPWK 222152Z 20005KT 10SM CLR 34/17 A3003 RMK AO2 SLP161 T03440167
KMDW - Chicago, Illinois, USA
Distance from station: E 38mi, 62km
Updated: Fri, Sep-22-2017 4:53pm CDT
Few Clouds
Few Clouds
 Wind from S
Wind: S 10 mph , 17 km/h
Temperature: 93°F , 34°C
Dew Point: 64°F , 18°C
Humidity: 39%
Barometer: 1016.6 hPa
Clouds: Few Clouds
Visibility: 10 miles , 16 km
Cloud details: Few Clouds 6500 ft
Few Clouds 25000 ft
2017/09/22 21:53 KMDW 222153Z 19009KT 10SM FEW065 FEW250 34/18 A3002 RMK AO2 SLP151 T03440178
 
KRFD - Rockford, Illinois, USA
Distance from station: NW 39mi, 62km
Updated: Fri, Sep-22-2017 4:54pm CDT
Clear
Clear
 Wind from SSW
Wind: SSW 8 mph , 13 km/h
Temperature: 91°F , 33°C
Dew Point: 63°F , 17°C
Humidity: 38%
Barometer: 1016.3 hPa
Clouds: Clear
Visibility: 10 miles , 16 km
2017/09/22 21:54 KRFD 222154Z 21007KT 10SM CLR 33/17 A3001 RMK AO2 SLP157 T03280167